createdAt,value
2023-04-20T11:53:52.399Z,50.36
2023-04-20T11:56:19.364Z,52.16
2023-04-20T11:58:46.343Z,51.90
2023-04-20T12:01:13.410Z,49.47
2023-04-20T12:03:40.412Z,50.47
2023-04-20T12:06:07.469Z,48.38
2023-04-20T12:08:34.203Z,44.55
2023-04-20T12:11:01.018Z,44.04
2023-04-20T12:13:27.793Z,42.98
2023-04-20T12:15:54.676Z,43.34
2023-04-20T12:18:21.519Z,43.05
2023-04-20T12:20:50.199Z,43.90
2023-04-20T12:23:16.957Z,43.45
2023-04-20T12:25:43.694Z,42.13
2023-04-20T12:28:10.480Z,41.82
2023-04-20T12:30:37.365Z,42.44
2023-04-20T12:33:04.511Z,42.58
2023-04-20T12:35:31.314Z,41.77
2023-04-20T12:37:58.065Z,41.59
2023-04-20T12:40:25.008Z,41.29
2023-04-20T12:42:51.834Z,41.44
2023-04-20T12:45:19.309Z,40.81
2023-04-20T12:47:46.330Z,41.34
2023-04-20T12:50:13.289Z,42.77
2023-04-20T12:52:40.204Z,42.59
2023-04-20T12:55:08.032Z,43.09
2023-04-20T12:57:34.996Z,43.25
2023-04-20T13:00:06.187Z,42.71
2023-04-20T13:02:33.755Z,42.42
2023-04-20T13:05:00.629Z,42.14
2023-04-20T13:07:28.054Z,41.47
2023-04-20T13:09:54.835Z,41.75
2023-04-20T13:12:21.724Z,42.97
2023-04-20T13:14:48.705Z,43.37
2023-04-20T13:17:15.500Z,41.83
2023-04-20T13:19:42.238Z,40.98
2023-04-20T13:22:09.024Z,41.87
2023-04-20T13:24:35.735Z,42.45
2023-04-20T13:27:02.494Z,42.88
2023-04-20T13:29:29.255Z,44.17
2023-04-20T13:31:56.158Z,44.71
2023-04-20T13:34:23.082Z,45.25
2023-04-20T13:36:49.808Z,44.88
2023-04-20T13:39:17.780Z,45.50
2023-04-20T13:41:44.861Z,45.52
2023-04-20T13:44:16.298Z,44.94
2023-04-20T13:46:44.599Z,45.26
2023-04-20T13:49:13.394Z,45.75
2023-04-20T13:51:40.919Z,45.02
2023-04-20T13:54:07.879Z,45.51
2023-04-20T13:56:34.904Z,45.75
2023-04-20T13:59:04.016Z,45.41
2023-04-20T14:01:31.551Z,46.31
2023-04-20T14:03:58.886Z,47.01
2023-04-20T14:06:26.913Z,47.11
2023-04-20T14:08:53.724Z,46.44
2023-04-20T14:11:20.573Z,45.35
2023-04-20T14:13:47.491Z,45.04
2023-04-20T14:16:17.001Z,44.28
2023-04-20T14:18:43.863Z,43.81
2023-04-20T14:21:10.923Z,43.34
2023-04-20T14:23:37.801Z,44.47
2023-04-20T14:26:04.764Z,43.05
2023-04-20T14:28:33.424Z,43.90
2023-04-20T14:31:04.550Z,44.52
2023-04-20T14:33:31.411Z,45.13
2023-04-20T14:35:58.128Z,45.29
2023-04-20T14:38:24.878Z,45.20
2023-04-20T14:40:52.503Z,45.66
2023-04-20T14:43:19.275Z,45.54
2023-04-20T14:45:46.824Z,45.65
2023-04-20T14:48:13.577Z,45.56
2023-04-20T14:50:40.296Z,44.87
2023-04-20T14:53:07.062Z,45.46
2023-04-20T14:55:33.870Z,45.80
2023-04-20T14:58:00.813Z,45.61
2023-04-20T15:00:28.391Z,46.37
2023-04-20T15:02:59.676Z,46.48
2023-04-20T15:05:27.657Z,47.07
2023-04-20T15:07:54.648Z,46.28
2023-04-20T15:10:21.752Z,46.67
2023-04-20T15:12:48.880Z,44.96
2023-04-20T15:15:16.551Z,45.59
2023-04-20T15:17:44.523Z,45.79
2023-04-20T15:20:11.632Z,44.42
2023-04-20T15:22:38.376Z,44.21
2023-04-20T15:25:05.687Z,43.91
2023-04-20T15:27:32.421Z,43.67
2023-04-20T15:29:59.175Z,43.61
2023-04-20T15:32:26.811Z,42.76
2023-04-20T15:34:53.577Z,42.75
2023-04-20T15:37:20.474Z,43.08
2023-04-20T15:39:47.220Z,43.35
2023-04-20T15:42:14.019Z,43.80
2023-04-20T15:44:41.531Z,43.85
2023-04-20T15:47:08.502Z,44.22
2023-04-20T15:49:37.432Z,43.52
2023-04-20T15:52:04.598Z,43.85
2023-04-20T15:54:31.335Z,43.41
2023-04-20T15:56:58.141Z,43.54
2023-04-20T15:59:24.950Z,46.09
2023-04-20T16:01:52.120Z,44.91
2023-04-20T16:04:19.132Z,43.44
2023-04-20T16:06:46.202Z,45.60
2023-04-20T16:09:13.240Z,53.18
2023-04-20T16:11:40.703Z,54.49
2023-04-20T16:14:07.768Z,56.59
2023-04-20T16:16:34.688Z,58.05
2023-04-20T16:19:01.430Z,58.94
2023-04-20T16:21:28.235Z,60.01
2023-04-20T16:23:56.753Z,59.33
2023-04-20T16:26:26.093Z,60.31
2023-04-20T16:28:54.209Z,61.03
2023-04-20T16:31:21.269Z,61.82
2023-04-20T16:33:48.171Z,62.00
2023-04-20T16:36:16.519Z,62.58
2023-04-20T16:38:43.502Z,62.64
2023-04-20T16:41:10.340Z,62.71
2023-04-20T16:43:37.191Z,63.34
2023-04-20T16:46:04.016Z,64.06
2023-04-20T16:48:31.187Z,64.83
2023-04-20T16:50:57.977Z,65.50
2023-04-20T16:53:24.713Z,65.43
2023-04-20T16:55:51.875Z,65.67
2023-04-20T16:58:18.651Z,66.04
2023-04-20T17:00:45.542Z,66.41
2023-04-20T17:03:13.696Z,66.51
2023-04-20T17:05:42.129Z,66.52
2023-04-20T17:08:09.540Z,66.81
2023-04-20T17:10:39.528Z,67.57
2023-04-20T17:13:06.365Z,67.67
2023-04-20T17:15:33.151Z,67.02
2023-04-20T17:18:00.187Z,66.89
2023-04-20T17:20:27.007Z,65.72
2023-04-20T17:22:53.780Z,65.82
2023-04-20T17:25:20.615Z,66.80
2023-04-20T17:27:47.260Z,67.30
2023-04-20T17:30:14.295Z,67.10
2023-04-20T17:32:41.152Z,67.18
2023-04-20T17:35:08.314Z,67.03
2023-04-20T17:37:36.569Z,67.32
2023-04-20T17:40:06.257Z,67.39
2023-04-20T17:42:33.171Z,67.44
2023-04-20T17:45:00.021Z,67.36
2023-04-20T17:47:28.480Z,67.57
2023-04-20T17:49:56.077Z,68.03
2023-04-20T17:52:22.982Z,67.58
2023-04-20T17:54:49.874Z,67.54
2023-04-20T17:57:16.626Z,67.58
2023-04-20T17:59:43.374Z,67.84
2023-04-20T18:02:11.862Z,67.89
2023-04-20T18:04:39.198Z,68.32
2023-04-20T18:07:06.167Z,68.12
2023-04-20T18:09:32.982Z,68.06
2023-04-20T18:11:59.781Z,68.32
2023-04-20T18:14:26.590Z,68.40
2023-04-20T18:16:55.204Z,68.24
2023-04-20T18:19:22.746Z,68.23
2023-04-20T18:21:49.518Z,68.70
2023-04-20T18:24:16.609Z,68.45
2023-04-20T18:26:43.353Z,68.34
2023-04-20T18:29:10.135Z,68.53
2023-04-20T18:31:37.143Z,68.43
2023-04-20T18:34:04.149Z,68.77
2023-04-20T18:36:31.535Z,68.66
2023-04-20T18:39:03.166Z,68.93
2023-04-20T18:41:30.600Z,69.01
2023-04-20T18:43:57.328Z,68.94
2023-04-20T18:46:25.682Z,69.29
2023-04-20T18:48:52.669Z,69.36
2023-04-20T18:51:19.367Z,69.66
2023-04-20T18:53:46.432Z,69.81
2023-04-20T18:56:13.098Z,70.06
2023-04-20T18:58:39.823Z,70.41
2023-04-20T19:01:06.768Z,70.58
2023-04-20T19:03:33.740Z,70.53
2023-04-20T19:06:00.638Z,70.69
2023-04-20T19:08:27.562Z,70.80
2023-04-20T19:10:57.705Z,70.84
2023-04-20T19:13:24.559Z,70.88
2023-04-20T19:15:55.166Z,70.61
2023-04-20T19:18:22.020Z,70.71
2023-04-20T19:20:48.888Z,70.82
2023-04-20T19:23:15.693Z,70.36
2023-04-20T19:25:42.484Z,69.96
2023-04-20T19:28:10.433Z,69.77
2023-04-20T19:30:37.201Z,70.18
2023-04-20T19:33:05.120Z,70.12
2023-04-20T19:35:32.282Z,70.33
2023-04-20T19:37:59.972Z,70.93
2023-04-20T19:40:32.844Z,70.99
2023-04-20T19:42:59.582Z,71.15
2023-04-20T19:45:26.263Z,71.47
2023-04-20T19:47:53.074Z,71.76
2023-04-20T19:50:19.821Z,71.59
2023-04-20T19:52:46.644Z,71.55
2023-04-20T19:55:13.554Z,71.47
2023-04-20T19:57:40.337Z,71.53
2023-04-20T20:00:08.800Z,71.74
2023-04-20T20:02:41.802Z,72.12
2023-04-20T20:05:09.311Z,72.11
2023-04-20T20:07:36.130Z,72.02
2023-04-20T20:10:04.040Z,72.25
2023-04-20T20:12:30.988Z,72.49
2023-04-20T20:14:57.884Z,72.46
2023-04-20T20:17:24.645Z,72.43
2023-04-20T20:19:53.758Z,72.52
2023-04-20T20:22:21.866Z,72.84
2023-04-20T20:24:52.407Z,72.81
2023-04-20T20:27:19.248Z,72.57
2023-04-20T20:29:45.992Z,72.78
2023-04-20T20:32:12.830Z,72.70
2023-04-20T20:34:39.550Z,72.56
2023-04-20T20:37:07.010Z,72.78
2023-04-20T20:39:33.760Z,72.82
2023-04-20T20:42:02.010Z,73.32
2023-04-20T20:44:32.723Z,73.44
2023-04-20T20:47:00.749Z,73.53
2023-04-20T20:49:27.799Z,73.47
2023-04-20T20:51:54.792Z,73.70
2023-04-20T20:54:21.726Z,73.82
2023-04-20T20:56:48.682Z,73.90
2023-04-20T20:59:15.457Z,73.89
2023-04-20T21:01:42.579Z,73.97
2023-04-20T21:04:09.580Z,73.88
2023-04-20T21:06:36.364Z,74.09
2023-04-20T21:09:04.288Z,73.88
2023-04-20T21:11:31.074Z,73.80
2023-04-20T21:14:01.752Z,73.97
2023-04-20T21:16:29.201Z,74.15
2023-04-20T21:18:55.948Z,74.27
2023-04-20T21:21:22.781Z,74.10
2023-04-20T21:23:50.443Z,74.26
2023-04-20T21:26:17.310Z,74.22
2023-04-20T21:28:44.575Z,73.99
2023-04-20T21:31:11.367Z,74.32
2023-04-20T21:33:38.343Z,74.03
2023-04-20T21:36:05.512Z,74.13
2023-04-20T21:38:32.306Z,74.28
2023-04-20T21:40:59.076Z,74.11
2023-04-20T21:43:25.819Z,74.37
2023-04-20T21:45:52.794Z,74.26
2023-04-20T21:48:22.152Z,74.30
2023-04-20T21:50:48.859Z,74.42
2023-04-20T21:53:15.749Z,74.45
2023-04-20T21:55:42.598Z,73.98
2023-04-20T21:58:09.372Z,74.07
2023-04-20T22:00:36.204Z,73.80
2023-04-20T22:03:03.044Z,73.63
2023-04-20T22:05:29.988Z,73.53
2023-04-20T22:07:59.931Z,73.64
2023-04-20T22:10:27.280Z,73.87
2023-04-20T22:12:54.136Z,73.63
2023-04-20T22:15:23.451Z,73.84
2023-04-20T22:17:50.352Z,73.81
2023-04-20T22:20:19.361Z,73.74
2023-04-20T22:22:46.657Z,73.68
2023-04-20T22:25:13.543Z,74.09
2023-04-20T22:27:40.425Z,74.11
2023-04-20T22:30:09.684Z,74.04
2023-04-20T22:32:38.119Z,74.04
2023-04-20T22:35:05.438Z,74.07
2023-04-20T22:37:32.293Z,73.92
2023-04-20T22:39:59.256Z,73.97
2023-04-20T22:42:26.244Z,73.92
2023-04-20T22:44:53.118Z,73.50
2023-04-20T22:47:20.013Z,73.42
2023-04-20T22:49:46.958Z,72.99
2023-04-20T22:52:13.792Z,73.20
2023-04-20T22:54:40.730Z,73.26
2023-04-20T22:57:07.668Z,73.00
2023-04-20T22:59:34.511Z,73.16
2023-04-20T23:02:01.534Z,73.31
2023-04-20T23:04:28.412Z,73.02
2023-04-20T23:06:56.710Z,72.65
2023-04-20T23:09:24.006Z,72.35
2023-04-20T23:11:51.009Z,72.20
2023-04-20T23:14:17.898Z,72.41
2023-04-20T23:16:44.934Z,72.22
2023-04-20T23:19:11.958Z,72.00
2023-04-20T23:21:38.818Z,72.25
2023-04-20T23:24:05.801Z,72.07
2023-04-20T23:26:32.676Z,72.02
2023-04-20T23:28:59.612Z,71.81
2023-04-20T23:31:26.505Z,71.51
2023-04-20T23:33:53.365Z,71.84
2023-04-20T23:36:20.232Z,72.55
2023-04-20T23:38:47.080Z,72.31
2023-04-20T23:41:15.721Z,72.02
2023-04-20T23:43:42.704Z,72.20
2023-04-20T23:46:09.631Z,71.82
2023-04-20T23:48:36.549Z,71.92
2023-04-20T23:51:03.602Z,72.43
2023-04-20T23:53:30.561Z,72.18
2023-04-20T23:55:57.503Z,72.13
2023-04-20T23:58:25.439Z,72.01
